Airfield :
LOGIN :

Register | Disclaimer

   EN    FR    IT 

 










Legend :    VFR   Marginal VFR   IFR   Intensive IFR   Very Intensive IFR
Visi :
Ceiling :
>= 8 km
>= 3000ft
5 to 8 km
1000 to 3000 ft
1500m to 5 km
500 to 1000 ft
800 to 1500m
200 to 500 ft
< 800m
< 200 ft
Symbols :   Thunderstorms  Fog  Heavy snow  Heavy precipitations  Wind > 20 kt
SIGMETs :     Misc.  Thunderstorms  Icing  Turbulence  Mountain Waves  Volcanic Ashes






- Airport Elevation : 265 ft


ETSH - Holzdorf AB

CURRENT METAR :
  • 221120Z 32008KT 9999 OVC014 17/13 Q1014 GRN GRN BECMG BLU

EXPIRED METARs :
  • 221020Z 33006KT 9999 OVC013 17/13 Q1014 GRN GRN BECMG BLU
  • 220920Z 30007KT 9999 BKN011 17/14 Q1013 GRN GRN

TAF TAF ETSH
Valid from the 22 at 11:00 until the 22 at 20:00 UTC


221025Z 2211/2220 33007KT 9999 NSW SCT015 BKN030
TEMPO 2211/2215 33005KT 8000 -RA BKN013 BKN025



MET'MAP, your aeronautical weather chart ! - Copyright ORBIFLY December 2007 - Disclaimer

ORBIFLY MET'MAP TEAM :

Programming & Development : Alexandra Zaïnal
Concept & original design : Baudouin d'Aumeries
Assistance for programming : Marc-Olivier Méhu
Technical & hardware support : Manuel Goepfert

Contact : metmap@orbifly.com




SOURCES & CREDITS :

   NOAA